Airfield :
LOGIN :

Register | Disclaimer

   EN    FR    IT 

 










Legend :    VFR   Marginal VFR   IFR   Intensive IFR   Very Intensive IFR
Visi :
Ceiling :
>= 8 km
>= 3000ft
5 to 8 km
1000 to 3000 ft
1500m to 5 km
500 to 1000 ft
800 to 1500m
200 to 500 ft
< 800m
< 200 ft
Symbols :   Thunderstorms  Fog  Heavy snow  Heavy precipitations  Wind > 20 kt
SIGMETs :     Misc.  Thunderstorms  Icing  Turbulence  Mountain Waves  Volcanic Ashes







- Airport Elevation : 0 ft


ENSL - Sleipner A Platform

CURRENT METAR :
  • 152350Z AUTO 19015KT 9999NDV FEW012/// BKN190/// 10/07 Q1016 W08/S3

EXPIRED METARs :
  • 152320Z AUTO 19013KT 9999NDV BKN200/// 10/07 Q1016 W08/S3
  • 152250Z AUTO 18011G21KT 9999NDV BKN200/// 10/07 Q1016 W08/S3
  • 152220Z AUTO 21012KT 170V240 9999NDV BKN210/// 10/08 Q1016 W08/S3
  • 152150Z AUTO 22011KT 9999NDV BKN220/// 10/07 Q1017 W08/S3
  • 152120Z AUTO 22012KT 9999NDV NCD 10/07 Q1016 W07/S3

Expired Forecast.
No reported NOTAMs for that airfield.
1 SIGMET reported for the Scottish FIR (EGPX) :
 
Severe mountain waves
EGPX SIGMET 01 VALID 152330/160330 EGRR
EGPX SCOTTISH FIR SEV MTW FCST W OF LINE N6100 W00336 - N5414 W00710 FL050/280 MOV E 10KT NC=



MET'MAP, your aeronautical weather chart ! - Copyright ORBIFLY December 2007 - Disclaimer

ORBIFLY MET'MAP TEAM :

Programming & Development : Alexandra Zaïnal
Concept & Development : Baudouin d'Aumeries
Co-Development & Prog : Marc-Olivier Méhu
Technical & hardware support : Manuel Goepfert

Contact : metmap@orbifly.com




SOURCES & CREDITS :

   NOAA